sensor_id;sensor_type;location;lat;lon;timestamp;temperature;humidity
12408;DHT22;6268;48.188;17.134;2022-10-16T00:01:47;13.70;99.90
12408;DHT22;6268;48.188;17.134;2022-10-16T00:04:16;13.80;99.90
12408;DHT22;6268;48.188;17.134;2022-10-16T00:06:44;13.80;99.90
12408;DHT22;6268;48.188;17.134;2022-10-16T00:09:13;13.70;99.90
12408;DHT22;6268;48.188;17.134;2022-10-16T00:11:43;13.70;99.90
12408;DHT22;6268;48.188;17.134;2022-10-16T00:14:14;13.70;99.90
12408;DHT22;6268;48.188;17.134;2022-10-16T00:16:43;13.70;99.90
12408;DHT22;6268;48.188;17.134;2022-10-16T00:19:11;13.70;99.90
12408;DHT22;6268;48.188;17.134;2022-10-16T00:21:40;13.60;99.90
12408;DHT22;6268;48.188;17.134;2022-10-16T00:24:10;13.60;99.90
12408;DHT22;6268;48.188;17.134;2022-10-16T00:26:39;13.60;99.90
12408;DHT22;6268;48.188;17.134;2022-10-16T00:29:10;13.60;99.90
12408;DHT22;6268;48.188;17.134;2022-10-16T00:31:39;13.60;99.90
12408;DHT22;6268;48.188;17.134;2022-10-16T00:34:07;13.50;99.90
12408;DHT22;6268;48.188;17.134;2022-10-16T00:36:36;13.50;99.90
12408;DHT22;6268;48.188;17.134;2022-10-16T00:39:04;13.50;99.90
12408;DHT22;6268;48.188;17.134;2022-10-16T00:41:33;13.50;99.90
12408;DHT22;6268;48.188;17.134;2022-10-16T00:44:03;13.50;99.90
12408;DHT22;6268;48.188;17.134;2022-10-16T00:47:17;13.40;99.90
12408;DHT22;6268;48.188;17.134;2022-10-16T00:49:51;13.40;99.90
12408;DHT22;6268;48.188;17.134;2022-10-16T00:52:23;13.30;99.90
12408;DHT22;6268;48.188;17.134;2022-10-16T00:54:54;13.30;99.90
12408;DHT22;6268;48.188;17.134;2022-10-16T00:57:24;13.30;99.90
12408;DHT22;6268;48.188;17.134;2022-10-16T00:59:54;13.30;99.90
12408;DHT22;6268;48.188;17.134;2022-10-16T01:02:24;13.20;99.90
12408;DHT22;6268;48.188;17.134;2022-10-16T01:04:54;13.20;99.90
12408;DHT22;6268;48.188;17.134;2022-10-16T01:07:36;13.20;99.90
12408;DHT22;6268;48.188;17.134;2022-10-16T01:10:17;13.10;99.90
12408;DHT22;6268;48.188;17.134;2022-10-16T01:12:56;13.10;99.90
12408;DHT22;6268;48.188;17.134;2022-10-16T01:15:33;13.10;99.90
12408;DHT22;6268;48.188;17.134;2022-10-16T01:18:10;13.10;99.90
12408;DHT22;6268;48.188;17.134;2022-10-16T01:20:45;13.00;99.90
12408;DHT22;6268;48.188;17.134;2022-10-16T01:23:34;13.00;99.90
12408;DHT22;6268;48.188;17.134;2022-10-16T01:26:19;13.00;99.90
12408;DHT22;6268;48.188;17.134;2022-10-16T01:29:05;13.00;99.90
12408;DHT22;6268;48.188;17.134;2022-10-16T01:31:39;13.00;99.90
12408;DHT22;6268;48.188;17.134;2022-10-16T01:34:15;12.90;99.90
12408;DHT22;6268;48.188;17.134;2022-10-16T01:36:51;12.90;99.90
12408;DHT22;6268;48.188;17.134;2022-10-16T01:39:28;12.90;99.90
12408;DHT22;6268;48.188;17.134;2022-10-16T01:42:06;12.90;99.90
12408;DHT22;6268;48.188;17.134;2022-10-16T01:44:41;12.80;99.90
12408;DHT22;6268;48.188;17.134;2022-10-16T01:47:13;12.80;99.90
12408;DHT22;6268;48.188;17.134;2022-10-16T01:49:43;12.70;99.90
12408;DHT22;6268;48.188;17.134;2022-10-16T01:52:16;12.80;99.90
12408;DHT22;6268;48.188;17.134;2022-10-16T01:54:50;12.80;99.90
12408;DHT22;6268;48.188;17.134;2022-10-16T01:57:22;12.70;99.90
12408;DHT22;6268;48.188;17.134;2022-10-16T01:59:57;12.80;99.90
12408;DHT22;6268;48.188;17.134;2022-10-16T02:02:32;12.70;99.90
12408;DHT22;6268;48.188;17.134;2022-10-16T02:05:06;12.60;99.90
12408;DHT22;6268;48.188;17.134;2022-10-16T02:07:43;12.60;99.90
12408;DHT22;6268;48.188;17.134;2022-10-16T02:10:11;12.70;99.90
12408;DHT22;6268;48.188;17.134;2022-10-16T02:12:43;12.70;99.90
12408;DHT22;6268;48.188;17.134;2022-10-16T02:15:17;12.60;99.90
12408;DHT22;6268;48.188;17.134;2022-10-16T02:17:46;12.60;99.90
12408;DHT22;6268;48.188;17.134;2022-10-16T02:20:15;12.50;99.90
12408;DHT22;6268;48.188;17.134;2022-10-16T02:22:46;12.50;99.90
12408;DHT22;6268;48.188;17.134;2022-10-16T02:25:24;12.50;99.90
12408;DHT22;6268;48.188;17.134;2022-10-16T02:27:57;12.50;99.90
12408;DHT22;6268;48.188;17.134;2022-10-16T02:30:34;12.50;99.90
12408;DHT22;6268;48.188;17.134;2022-10-16T02:33:10;12.50;99.90
12408;DHT22;6268;48.188;17.134;2022-10-16T02:35:41;12.60;99.90
12408;DHT22;6268;48.188;17.134;2022-10-16T02:38:12;12.60;99.90
12408;DHT22;6268;48.188;17.134;2022-10-16T02:40:43;12.70;99.90
12408;DHT22;6268;48.188;17.134;2022-10-16T02:43:12;12.70;99.90
12408;DHT22;6268;48.188;17.134;2022-10-16T02:45:43;12.80;99.90
12408;DHT22;6268;48.188;17.134;2022-10-16T02:48:11;12.70;99.90
12408;DHT22;6268;48.188;17.134;2022-10-16T02:50:40;12.70;99.90
12408;DHT22;6268;48.188;17.134;2022-10-16T02:53:08;12.70;99.90
12408;DHT22;6268;48.188;17.134;2022-10-16T02:55:37;12.70;99.90
12408;DHT22;6268;48.188;17.134;2022-10-16T02:58:06;12.80;99.90
12408;DHT22;6268;48.188;17.134;2022-10-16T03:00:35;12.80;99.90
12408;DHT22;6268;48.188;17.134;2022-10-16T03:03:05;12.90;99.90
12408;DHT22;6268;48.188;17.134;2022-10-16T03:05:33;12.80;99.90
12408;DHT22;6268;48.188;17.134;2022-10-16T03:08:02;12.90;99.90
12408;DHT22;6268;48.188;17.134;2022-10-16T03:10:30;12.80;99.90
12408;DHT22;6268;48.188;17.134;2022-10-16T03:12:59;12.80;99.90
12408;DHT22;6268;48.188;17.134;2022-10-16T03:15:28;12.80;99.90
12408;DHT22;6268;48.188;17.134;2022-10-16T03:17:57;12.80;99.90
12408;DHT22;6268;48.188;17.134;2022-10-16T03:20:28;12.70;99.90
12408;DHT22;6268;48.188;17.134;2022-10-16T03:22:56;12.70;99.90
12408;DHT22;6268;48.188;17.134;2022-10-16T03:25:25;12.70;99.90
12408;DHT22;6268;48.188;17.134;2022-10-16T03:27:53;12.70;99.90
12408;DHT22;6268;48.188;17.134;2022-10-16T03:30:22;12.70;99.90
12408;DHT22;6268;48.188;17.134;2022-10-16T03:32:51;12.70;99.90
12408;DHT22;6268;48.188;17.134;2022-10-16T03:35:21;12.80;99.90
12408;DHT22;6268;48.188;17.134;2022-10-16T03:37:52;12.80;99.90
12408;DHT22;6268;48.188;17.134;2022-10-16T03:40:20;12.90;99.90
12408;DHT22;6268;48.188;17.134;2022-10-16T03:42:49;12.90;99.90
12408;DHT22;6268;48.188;17.134;2022-10-16T03:45:17;12.90;99.90
12408;DHT22;6268;48.188;17.134;2022-10-16T03:47:46;12.80;99.90
12408;DHT22;6268;48.188;17.134;2022-10-16T03:50:15;12.80;99.90
12408;DHT22;6268;48.188;17.134;2022-10-16T03:52:44;12.80;99.90
12408;DHT22;6268;48.188;17.134;2022-10-16T03:55:14;12.90;99.90
12408;DHT22;6268;48.188;17.134;2022-10-16T03:57:43;12.90;99.90
12408;DHT22;6268;48.188;17.134;2022-10-16T04:00:12;12.80;99.90
12408;DHT22;6268;48.188;17.134;2022-10-16T04:02:41;12.80;99.90
12408;DHT22;6268;48.188;17.134;2022-10-16T04:05:09;12.80;99.90
12408;DHT22;6268;48.188;17.134;2022-10-16T04:07:38;12.80;99.90
12408;DHT22;6268;48.188;17.134;2022-10-16T04:10:07;12.80;99.90
12408;DHT22;6268;48.188;17.134;2022-10-16T04:12:38;12.70;99.90
12408;DHT22;6268;48.188;17.134;2022-10-16T04:15:07;12.70;99.90
12408;DHT22;6268;48.188;17.134;2022-10-16T04:17:36;12.70;99.90
12408;DHT22;6268;48.188;17.134;2022-10-16T04:20:06;12.70;99.90
12408;DHT22;6268;48.188;17.134;2022-10-16T04:22:35;12.70;99.90
12408;DHT22;6268;48.188;17.134;2022-10-16T04:25:04;12.70;99.90
12408;DHT22;6268;48.188;17.134;2022-10-16T04:27:33;12.60;99.90
12408;DHT22;6268;48.188;17.134;2022-10-16T04:30:04;12.60;99.90
12408;DHT22;6268;48.188;17.134;2022-10-16T04:32:33;12.70;99.90
12408;DHT22;6268;48.188;17.134;2022-10-16T04:35:02;12.70;99.90
12408;DHT22;6268;48.188;17.134;2022-10-16T04:37:31;12.70;99.90
12408;DHT22;6268;48.188;17.134;2022-10-16T04:39:59;12.70;99.90
12408;DHT22;6268;48.188;17.134;2022-10-16T04:42:28;12.70;99.90
12408;DHT22;6268;48.188;17.134;2022-10-16T04:44:56;12.70;99.90
12408;DHT22;6268;48.188;17.134;2022-10-16T04:47:26;12.70;99.90
12408;DHT22;6268;48.188;17.134;2022-10-16T04:49:55;12.70;99.90
12408;DHT22;6268;48.188;17.134;2022-10-16T04:52:24;12.70;99.90
12408;DHT22;6268;48.188;17.134;2022-10-16T04:54:53;12.70;99.90
12408;DHT22;6268;48.188;17.134;2022-10-16T04:57:23;12.70;99.90
12408;DHT22;6268;48.188;17.134;2022-10-16T04:59:52;12.70;99.90
12408;DHT22;6268;48.188;17.134;2022-10-16T05:02:21;12.70;99.90
12408;DHT22;6268;48.188;17.134;2022-10-16T05:04:51;12.60;99.90
12408;DHT22;6268;48.188;17.134;2022-10-16T05:07:20;12.60;99.90
12408;DHT22;6268;48.188;17.134;2022-10-16T05:09:48;12.60;99.90
12408;DHT22;6268;48.188;17.134;2022-10-16T05:12:17;12.50;99.90
12408;DHT22;6268;48.188;17.134;2022-10-16T05:14:46;12.50;99.90
12408;DHT22;6268;48.188;17.134;2022-10-16T05:17:14;12.50;99.90
12408;DHT22;6268;48.188;17.134;2022-10-16T05:19:43;12.50;99.90
12408;DHT22;6268;48.188;17.134;2022-10-16T05:22:13;12.50;99.90
12408;DHT22;6268;48.188;17.134;2022-10-16T05:24:41;12.60;99.90
12408;DHT22;6268;48.188;17.134;2022-10-16T05:27:10;12.60;99.90
12408;DHT22;6268;48.188;17.134;2022-10-16T05:29:45;12.60;99.90
12408;DHT22;6268;48.188;17.134;2022-10-16T05:32:16;12.60;99.90
12408;DHT22;6268;48.188;17.134;2022-10-16T05:34:46;12.50;99.90
12408;DHT22;6268;48.188;17.134;2022-10-16T05:37:16;12.60;99.90
12408;DHT22;6268;48.188;17.134;2022-10-16T05:39:45;12.70;99.90
12408;DHT22;6268;48.188;17.134;2022-10-16T05:42:14;12.80;99.90
12408;DHT22;6268;48.188;17.134;2022-10-16T05:44:42;13.00;99.90
12408;DHT22;6268;48.188;17.134;2022-10-16T05:47:13;13.00;99.90
12408;DHT22;6268;48.188;17.134;2022-10-16T05:49:42;13.00;99.90
12408;DHT22;6268;48.188;17.134;2022-10-16T05:52:10;13.00;99.90
12408;DHT22;6268;48.188;17.134;2022-10-16T05:54:40;13.10;99.90
12408;DHT22;6268;48.188;17.134;2022-10-16T05:57:09;13.20;99.90
12408;DHT22;6268;48.188;17.134;2022-10-16T05:59:38;13.30;99.90
12408;DHT22;6268;48.188;17.134;2022-10-16T06:02:09;13.50;99.90
12408;DHT22;6268;48.188;17.134;2022-10-16T06:04:40;13.60;99.90
12408;DHT22;6268;48.188;17.134;2022-10-16T06:07:09;13.70;99.90
12408;DHT22;6268;48.188;17.134;2022-10-16T06:09:39;13.90;99.90
12408;DHT22;6268;48.188;17.134;2022-10-16T06:12:08;13.90;99.90
12408;DHT22;6268;48.188;17.134;2022-10-16T06:14:36;14.10;99.90
12408;DHT22;6268;48.188;17.134;2022-10-16T06:17:05;14.80;99.90
12408;DHT22;6268;48.188;17.134;2022-10-16T06:19:34;14.90;99.90
12408;DHT22;6268;48.188;17.134;2022-10-16T06:22:02;15.00;99.90
12408;DHT22;6268;48.188;17.134;2022-10-16T06:24:31;15.20;99.90
12408;DHT22;6268;48.188;17.134;2022-10-16T06:27:01;15.60;99.90
12408;DHT22;6268;48.188;17.134;2022-10-16T06:29:31;15.70;99.90
12408;DHT22;6268;48.188;17.134;2022-10-16T06:31:59;15.60;99.90
12408;DHT22;6268;48.188;17.134;2022-10-16T06:34:28;15.70;99.90
12408;DHT22;6268;48.188;17.134;2022-10-16T06:36:57;15.90;99.90
12408;DHT22;6268;48.188;17.134;2022-10-16T06:39:25;15.90;99.90
12408;DHT22;6268;48.188;17.134;2022-10-16T06:41:54;16.10;99.90
12408;DHT22;6268;48.188;17.134;2022-10-16T06:44:24;16.50;99.90
12408;DHT22;6268;48.188;17.134;2022-10-16T06:46:53;16.90;99.90
12408;DHT22;6268;48.188;17.134;2022-10-16T06:49:21;16.90;99.90
12408;DHT22;6268;48.188;17.134;2022-10-16T06:51:50;16.70;99.90
12408;DHT22;6268;48.188;17.134;2022-10-16T06:54:19;16.80;99.90
12408;DHT22;6268;48.188;17.134;2022-10-16T06:56:47;16.50;99.90
12408;DHT22;6268;48.188;17.134;2022-10-16T06:59:16;15.90;99.90
12408;DHT22;6268;48.188;17.134;2022-10-16T07:01:46;15.60;99.90
12408;DHT22;6268;48.188;17.134;2022-10-16T07:04:15;16.50;99.90
12408;DHT22;6268;48.188;17.134;2022-10-16T07:06:44;17.30;99.90
12408;DHT22;6268;48.188;17.134;2022-10-16T07:09:13;17.10;99.90
12408;DHT22;6268;48.188;17.134;2022-10-16T07:11:41;16.70;99.90
12408;DHT22;6268;48.188;17.134;2022-10-16T07:14:16;17.20;99.90
12408;DHT22;6268;48.188;17.134;2022-10-16T07:16:47;17.90;99.90
12408;DHT22;6268;48.188;17.134;2022-10-16T07:19:16;17.90;99.90
12408;DHT22;6268;48.188;17.134;2022-10-16T07:21:45;18.10;99.90
12408;DHT22;6268;48.188;17.134;2022-10-16T07:24:15;18.20;99.90
12408;DHT22;6268;48.188;17.134;2022-10-16T07:26:45;18.60;99.90
12408;DHT22;6268;48.188;17.134;2022-10-16T07:29:16;18.60;99.90
12408;DHT22;6268;48.188;17.134;2022-10-16T07:31:48;18.80;99.90
12408;DHT22;6268;48.188;17.134;2022-10-16T07:34:18;19.30;99.90
12408;DHT22;6268;48.188;17.134;2022-10-16T07:36:49;19.50;99.90
12408;DHT22;6268;48.188;17.134;2022-10-16T07:39:18;19.50;99.90
12408;DHT22;6268;48.188;17.134;2022-10-16T07:41:46;19.90;99.90
12408;DHT22;6268;48.188;17.134;2022-10-16T07:44:15;19.50;99.90
12408;DHT22;6268;48.188;17.134;2022-10-16T07:46:44;19.50;99.90
12408;DHT22;6268;48.188;17.134;2022-10-16T07:49:14;19.20;99.90
12408;DHT22;6268;48.188;17.134;2022-10-16T07:51:43;18.80;99.90
12408;DHT22;6268;48.188;17.134;2022-10-16T07:54:12;19.10;99.90
12408;DHT22;6268;48.188;17.134;2022-10-16T07:56:40;19.50;99.90
12408;DHT22;6268;48.188;17.134;2022-10-16T07:59:10;19.20;99.90
12408;DHT22;6268;48.188;17.134;2022-10-16T08:01:38;20.30;99.90
12408;DHT22;6268;48.188;17.134;2022-10-16T08:04:09;20.30;99.90
12408;DHT22;6268;48.188;17.134;2022-10-16T08:06:40;20.30;99.90
12408;DHT22;6268;48.188;17.134;2022-10-16T08:09:09;20.30;99.90
12408;DHT22;6268;48.188;17.134;2022-10-16T08:11:37;20.30;99.90
12408;DHT22;6268;48.188;17.134;2022-10-16T08:14:06;19.60;99.90
12408;DHT22;6268;48.188;17.134;2022-10-16T08:16:35;19.90;99.90
12408;DHT22;6268;48.188;17.134;2022-10-16T08:19:03;20.90;99.90
12408;DHT22;6268;48.188;17.134;2022-10-16T08:21:32;21.70;99.90
12408;DHT22;6268;48.188;17.134;2022-10-16T08:24:02;22.20;99.90
12408;DHT22;6268;48.188;17.134;2022-10-16T08:26:31;22.90;99.90
12408;DHT22;6268;48.188;17.134;2022-10-16T08:29:00;22.40;99.90
12408;DHT22;6268;48.188;17.134;2022-10-16T08:31:28;22.20;99.90
12408;DHT22;6268;48.188;17.134;2022-10-16T08:33:57;21.90;99.90
12408;DHT22;6268;48.188;17.134;2022-10-16T08:36:26;21.90;99.90
12408;DHT22;6268;48.188;17.134;2022-10-16T08:38:54;21.30;99.90
12408;DHT22;6268;48.188;17.134;2022-10-16T08:45:02;20.20;99.90
12408;DHT22;6268;48.188;17.134;2022-10-16T08:47:51;19.40;99.90
12408;DHT22;6268;48.188;17.134;2022-10-16T08:50:32;19.00;99.90
12408;DHT22;6268;48.188;17.134;2022-10-16T08:53:05;19.20;99.90
12408;DHT22;6268;48.188;17.134;2022-10-16T08:55:41;19.40;99.90
12408;DHT22;6268;48.188;17.134;2022-10-16T08:58:15;20.10;99.90
12408;DHT22;6268;48.188;17.134;2022-10-16T09:00:48;20.90;99.90
12408;DHT22;6268;48.188;17.134;2022-10-16T09:03:33;21.00;99.90
12408;DHT22;6268;48.188;17.134;2022-10-16T09:06:36;21.80;99.90
12408;DHT22;6268;48.188;17.134;2022-10-16T09:09:37;20.60;99.90
12408;DHT22;6268;48.188;17.134;2022-10-16T09:12:20;21.00;99.90
12408;DHT22;6268;48.188;17.134;2022-10-16T09:15:01;21.10;99.90
12408;DHT22;6268;48.188;17.134;2022-10-16T09:17:42;22.00;99.90
12408;DHT22;6268;48.188;17.134;2022-10-16T09:20:28;22.60;99.90
12408;DHT22;6268;48.188;17.134;2022-10-16T09:23:14;21.60;99.90
12408;DHT22;6268;48.188;17.134;2022-10-16T09:25:47;21.50;99.90
12408;DHT22;6268;48.188;17.134;2022-10-16T09:28:18;22.20;99.90
12408;DHT22;6268;48.188;17.134;2022-10-16T09:30:48;22.80;99.90
12408;DHT22;6268;48.188;17.134;2022-10-16T09:33:20;22.90;99.90
12408;DHT22;6268;48.188;17.134;2022-10-16T09:35:54;23.20;99.90
12408;DHT22;6268;48.188;17.134;2022-10-16T09:38:27;23.00;99.90
12408;DHT22;6268;48.188;17.134;2022-10-16T09:40:58;22.40;99.90
12408;DHT22;6268;48.188;17.134;2022-10-16T09:43:34;21.40;99.90
12408;DHT22;6268;48.188;17.134;2022-10-16T09:46:25;21.80;99.90
12408;DHT22;6268;48.188;17.134;2022-10-16T09:48:57;21.80;99.90
12408;DHT22;6268;48.188;17.134;2022-10-16T09:51:28;22.10;99.90
12408;DHT22;6268;48.188;17.134;2022-10-16T09:54:00;22.90;99.90
12408;DHT22;6268;48.188;17.134;2022-10-16T09:56:31;23.30;99.90
12408;DHT22;6268;48.188;17.134;2022-10-16T09:59:10;23.30;99.90
12408;DHT22;6268;48.188;17.134;2022-10-16T10:01:44;21.90;99.90
12408;DHT22;6268;48.188;17.134;2022-10-16T10:04:15;22.10;99.90
12408;DHT22;6268;48.188;17.134;2022-10-16T10:06:45;21.90;99.90
12408;DHT22;6268;48.188;17.134;2022-10-16T10:09:18;22.10;99.90
12408;DHT22;6268;48.188;17.134;2022-10-16T10:11:51;21.60;99.90
12408;DHT22;6268;48.188;17.134;2022-10-16T10:14:24;21.40;99.90
12408;DHT22;6268;48.188;17.134;2022-10-16T10:17:13;21.10;99.90
12408;DHT22;6268;48.188;17.134;2022-10-16T10:19:51;21.20;99.90
12408;DHT22;6268;48.188;17.134;2022-10-16T10:22:27;22.10;99.90
12408;DHT22;6268;48.188;17.134;2022-10-16T10:25:35;21.80;99.90
12408;DHT22;6268;48.188;17.134;2022-10-16T10:28:24;21.50;99.90
12408;DHT22;6268;48.188;17.134;2022-10-16T10:31:07;21.50;99.90
12408;DHT22;6268;48.188;17.134;2022-10-16T10:33:46;21.80;99.90
12408;DHT22;6268;48.188;17.134;2022-10-16T10:36:29;21.60;99.90
12408;DHT22;6268;48.188;17.134;2022-10-16T10:39:04;21.20;99.90
12408;DHT22;6268;48.188;17.134;2022-10-16T10:42:03;20.60;99.90
12408;DHT22;6268;48.188;17.134;2022-10-16T10:45:11;20.80;99.90
12408;DHT22;6268;48.188;17.134;2022-10-16T10:48:01;20.90;99.90
12408;DHT22;6268;48.188;17.134;2022-10-16T10:50:43;21.20;99.90
12408;DHT22;6268;48.188;17.134;2022-10-16T10:53:33;21.80;99.90
12408;DHT22;6268;48.188;17.134;2022-10-16T10:56:23;21.90;99.90
12408;DHT22;6268;48.188;17.134;2022-10-16T10:59:19;21.70;99.90
12408;DHT22;6268;48.188;17.134;2022-10-16T11:02:03;21.70;99.90
12408;DHT22;6268;48.188;17.134;2022-10-16T11:08:00;21.40;99.90
12408;DHT22;6268;48.188;17.134;2022-10-16T11:10:46;21.60;99.90
12408;DHT22;6268;48.188;17.134;2022-10-16T11:13:28;21.50;99.90
12408;DHT22;6268;48.188;17.134;2022-10-16T11:16:06;21.60;99.90
12408;DHT22;6268;48.188;17.134;2022-10-16T11:18:51;21.60;99.90
12408;DHT22;6268;48.188;17.134;2022-10-16T11:21:24;21.20;99.90
12408;DHT22;6268;48.188;17.134;2022-10-16T11:24:02;21.40;99.90
12408;DHT22;6268;48.188;17.134;2022-10-16T11:26:41;21.50;99.90
12408;DHT22;6268;48.188;17.134;2022-10-16T11:29:15;21.60;99.90
12408;DHT22;6268;48.188;17.134;2022-10-16T11:31:51;21.50;99.90
12408;DHT22;6268;48.188;17.134;2022-10-16T11:34:26;21.20;99.90
12408;DHT22;6268;48.188;17.134;2022-10-16T11:37:08;20.90;99.90
12408;DHT22;6268;48.188;17.134;2022-10-16T11:39:42;21.10;99.90
12408;DHT22;6268;48.188;17.134;2022-10-16T11:42:18;21.10;99.90
12408;DHT22;6268;48.188;17.134;2022-10-16T11:44:55;20.80;99.90
12408;DHT22;6268;48.188;17.134;2022-10-16T11:47:34;21.00;99.90
12408;DHT22;6268;48.188;17.134;2022-10-16T11:50:28;21.10;99.90
12408;DHT22;6268;48.188;17.134;2022-10-16T11:53:04;21.40;99.90
12408;DHT22;6268;48.188;17.134;2022-10-16T11:55:44;21.30;99.90
12408;DHT22;6268;48.188;17.134;2022-10-16T11:58:21;21.30;99.90
12408;DHT22;6268;48.188;17.134;2022-10-16T12:00:59;21.40;99.90
12408;DHT22;6268;48.188;17.134;2022-10-16T12:03:42;21.50;99.90
12408;DHT22;6268;48.188;17.134;2022-10-16T12:06:30;21.40;99.90
12408;DHT22;6268;48.188;17.134;2022-10-16T12:09:03;21.10;99.90
12408;DHT22;6268;48.188;17.134;2022-10-16T12:11:37;21.00;99.90
12408;DHT22;6268;48.188;17.134;2022-10-16T12:14:22;20.90;99.90
12408;DHT22;6268;48.188;17.134;2022-10-16T12:17:26;21.00;99.90
12408;DHT22;6268;48.188;17.134;2022-10-16T12:20:00;21.10;99.90
12408;DHT22;6268;48.188;17.134;2022-10-16T12:22:31;20.90;99.90
12408;DHT22;6268;48.188;17.134;2022-10-16T12:25:20;20.90;99.90
12408;DHT22;6268;48.188;17.134;2022-10-16T12:28:00;20.90;99.90
12408;DHT22;6268;48.188;17.134;2022-10-16T12:30:33;20.90;99.90
12408;DHT22;6268;48.188;17.134;2022-10-16T12:33:05;20.90;99.90
12408;DHT22;6268;48.188;17.134;2022-10-16T12:35:45;20.90;99.90
12408;DHT22;6268;48.188;17.134;2022-10-16T12:38:19;20.90;99.90
12408;DHT22;6268;48.188;17.134;2022-10-16T12:40:58;20.90;99.90
12408;DHT22;6268;48.188;17.134;2022-10-16T12:43:37;21.00;99.90
12408;DHT22;6268;48.188;17.134;2022-10-16T12:46:38;20.80;99.90
12408;DHT22;6268;48.188;17.134;2022-10-16T12:49:23;20.60;99.90
12408;DHT22;6268;48.188;17.134;2022-10-16T12:51:58;20.70;99.90
12408;DHT22;6268;48.188;17.134;2022-10-16T12:54:29;20.70;99.90
12408;DHT22;6268;48.188;17.134;2022-10-16T12:57:12;20.70;99.90
12408;DHT22;6268;48.188;17.134;2022-10-16T13:00:00;20.80;99.90
12408;DHT22;6268;48.188;17.134;2022-10-16T13:02:49;20.90;99.90
12408;DHT22;6268;48.188;17.134;2022-10-16T13:05:52;20.90;99.90
12408;DHT22;6268;48.188;17.134;2022-10-16T13:08:42;20.90;99.90
12408;DHT22;6268;48.188;17.134;2022-10-16T13:11:27;21.00;99.90
12408;DHT22;6268;48.188;17.134;2022-10-16T13:14:20;21.00;99.90
12408;DHT22;6268;48.188;17.134;2022-10-16T13:17:16;21.00;99.90
12408;DHT22;6268;48.188;17.134;2022-10-16T13:19:57;21.00;99.90
12408;DHT22;6268;48.188;17.134;2022-10-16T13:22:35;20.90;99.90
12408;DHT22;6268;48.188;17.134;2022-10-16T13:25:23;20.80;99.90
12408;DHT22;6268;48.188;17.134;2022-10-16T13:28:00;20.70;99.90
12408;DHT22;6268;48.188;17.134;2022-10-16T13:30:31;20.60;99.90
12408;DHT22;6268;48.188;17.134;2022-10-16T13:33:12;20.60;99.90
12408;DHT22;6268;48.188;17.134;2022-10-16T13:35:48;20.70;99.90
12408;DHT22;6268;48.188;17.134;2022-10-16T13:38:20;20.70;99.90
12408;DHT22;6268;48.188;17.134;2022-10-16T13:40:55;20.70;99.90
12408;DHT22;6268;48.188;17.134;2022-10-16T13:43:28;20.60;99.90
12408;DHT22;6268;48.188;17.134;2022-10-16T13:46:02;20.70;99.90
12408;DHT22;6268;48.188;17.134;2022-10-16T13:48:34;20.70;99.90
12408;DHT22;6268;48.188;17.134;2022-10-16T13:51:05;20.70;99.90
12408;DHT22;6268;48.188;17.134;2022-10-16T13:53:40;20.80;99.90
12408;DHT22;6268;48.188;17.134;2022-10-16T13:56:12;20.90;99.90
12408;DHT22;6268;48.188;17.134;2022-10-16T13:58:41;20.90;99.90
12408;DHT22;6268;48.188;17.134;2022-10-16T14:01:17;21.00;99.90
12408;DHT22;6268;48.188;17.134;2022-10-16T14:03:50;21.00;99.90
12408;DHT22;6268;48.188;17.134;2022-10-16T14:06:21;20.90;99.90
12408;DHT22;6268;48.188;17.134;2022-10-16T14:08:55;21.00;99.90
12408;DHT22;6268;48.188;17.134;2022-10-16T14:11:28;21.10;99.90
12408;DHT22;6268;48.188;17.134;2022-10-16T14:13:57;21.10;99.90
12408;DHT22;6268;48.188;17.134;2022-10-16T14:16:28;21.10;99.90
12408;DHT22;6268;48.188;17.134;2022-10-16T14:19:01;21.00;99.90
12408;DHT22;6268;48.188;17.134;2022-10-16T14:21:33;20.90;99.90
12408;DHT22;6268;48.188;17.134;2022-10-16T14:24:11;20.90;99.90
12408;DHT22;6268;48.188;17.134;2022-10-16T14:26:42;20.90;99.90
12408;DHT22;6268;48.188;17.134;2022-10-16T14:29:19;20.90;99.90
12408;DHT22;6268;48.188;17.134;2022-10-16T14:31:55;20.80;99.90
12408;DHT22;6268;48.188;17.134;2022-10-16T14:34:29;20.90;99.90
12408;DHT22;6268;48.188;17.134;2022-10-16T14:37:01;20.90;99.90
12408;DHT22;6268;48.188;17.134;2022-10-16T14:39:36;20.90;99.90
12408;DHT22;6268;48.188;17.134;2022-10-16T14:42:05;20.90;99.90
12408;DHT22;6268;48.188;17.134;2022-10-16T14:44:44;20.90;99.90
12408;DHT22;6268;48.188;17.134;2022-10-16T14:47:16;20.80;99.90
12408;DHT22;6268;48.188;17.134;2022-10-16T14:49:51;20.90;99.90
12408;DHT22;6268;48.188;17.134;2022-10-16T14:52:20;20.80;99.90
12408;DHT22;6268;48.188;17.134;2022-10-16T14:54:49;20.80;99.90
12408;DHT22;6268;48.188;17.134;2022-10-16T14:57:24;20.80;99.90
12408;DHT22;6268;48.188;17.134;2022-10-16T14:59:55;20.80;99.90
12408;DHT22;6268;48.188;17.134;2022-10-16T15:02:28;20.80;99.90
12408;DHT22;6268;48.188;17.134;2022-10-16T15:05:07;20.90;99.90
12408;DHT22;6268;48.188;17.134;2022-10-16T15:07:41;20.80;99.90
12408;DHT22;6268;48.188;17.134;2022-10-16T15:10:10;20.80;99.90
12408;DHT22;6268;48.188;17.134;2022-10-16T15:12:40;20.90;99.90
12408;DHT22;6268;48.188;17.134;2022-10-16T15:15:25;20.90;99.90
12408;DHT22;6268;48.188;17.134;2022-10-16T15:17:59;20.80;99.90
12408;DHT22;6268;48.188;17.134;2022-10-16T15:20:33;20.80;99.90
12408;DHT22;6268;48.188;17.134;2022-10-16T15:23:05;20.80;99.90
12408;DHT22;6268;48.188;17.134;2022-10-16T15:25:37;20.80;99.90
12408;DHT22;6268;48.188;17.134;2022-10-16T15:28:09;20.80;99.90
12408;DHT22;6268;48.188;17.134;2022-10-16T15:30:39;20.80;99.90
12408;DHT22;6268;48.188;17.134;2022-10-16T15:33:13;20.70;99.90
12408;DHT22;6268;48.188;17.134;2022-10-16T15:35:46;20.70;99.90
12408;DHT22;6268;48.188;17.134;2022-10-16T15:38:17;20.70;99.90
12408;DHT22;6268;48.188;17.134;2022-10-16T15:40:47;20.70;99.90
12408;DHT22;6268;48.188;17.134;2022-10-16T15:43:17;20.60;99.90
12408;DHT22;6268;48.188;17.134;2022-10-16T15:45:58;20.50;99.90
12408;DHT22;6268;48.188;17.134;2022-10-16T15:48:28;20.40;99.90
12408;DHT22;6268;48.188;17.134;2022-10-16T15:50:59;20.30;99.90
12408;DHT22;6268;48.188;17.134;2022-10-16T15:53:28;20.20;99.90
12408;DHT22;6268;48.188;17.134;2022-10-16T15:55:56;20.10;99.90
12408;DHT22;6268;48.188;17.134;2022-10-16T15:58:25;20.10;99.90
12408;DHT22;6268;48.188;17.134;2022-10-16T16:00:58;20.10;99.90
12408;DHT22;6268;48.188;17.134;2022-10-16T16:03:29;20.00;99.90
12408;DHT22;6268;48.188;17.134;2022-10-16T16:06:04;19.90;99.90
12408;DHT22;6268;48.188;17.134;2022-10-16T16:08:34;19.90;99.90
12408;DHT22;6268;48.188;17.134;2022-10-16T16:11:05;19.90;99.90
12408;DHT22;6268;48.188;17.134;2022-10-16T16:13:36;19.90;99.90
12408;DHT22;6268;48.188;17.134;2022-10-16T16:16:06;19.80;99.90
12408;DHT22;6268;48.188;17.134;2022-10-16T16:18:36;19.80;99.90